CCA1283 ZBAA-ZLHZ
Flight info
| Callsign | CCA1283 |
|---|---|
| Flight time | N/A |
| Altitude | 34100 |
| Route | BOTPU W47 LOVRA W276 ANRUG W279 POLUS |
| Aircraft | A20N/M-SDE3FGHIRWYZ/EB1 |
Departure
| Time | 2026-05-06 14:21 |
|---|---|
| Airport | Beijing Capital International Airport (ZBAA) |
Arrival
| Time | N/A |
|---|---|
| Airport | Hanzhong Chenggu Airport (ZLHZ) |
| Time | Latitude | Longitude | Altitude | Speed | Heading |
|---|---|---|---|---|---|
| 2026-05-06 14:04 | 40.05957 | 116.60985 | 123 ft | 0 kts | 246° |
| 2026-05-06 14:10 | 40.05960 | 116.60995 | 123 ft | 2 kts | 246° |
| 2026-05-06 14:11 | 40.05967 | 116.61013 | 123 ft | 2 kts | 246° |
| 2026-05-06 14:11 | 40.05973 | 116.61031 | 123 ft | 2 kts | 252° |
| 2026-05-06 14:11 | 40.05975 | 116.61050 | 123 ft | 2 kts | 267° |
| 2026-05-06 14:11 | 40.05976 | 116.61070 | 123 ft | 2 kts | 262° |
| 2026-05-06 14:12 | 40.05978 | 116.61089 | 123 ft | 2 kts | 264° |
| 2026-05-06 14:12 | 40.05980 | 116.61109 | 123 ft | 2 kts | 284° |
| 2026-05-06 14:12 | 40.05972 | 116.61126 | 123 ft | 2 kts | 326° |
| 2026-05-06 14:12 | 40.05963 | 116.61131 | 123 ft | 0 kts | 351° |
| 2026-05-06 14:13 | 40.05956 | 116.61131 | 123 ft | 0 kts | 354° |
| 2026-05-06 14:15 | 40.05959 | 116.61131 | 123 ft | 1 kts | 354° |
| 2026-05-06 14:16 | 40.05979 | 116.61128 | 123 ft | 5 kts | 354° |
| 2026-05-06 14:16 | 40.06029 | 116.61121 | 123 ft | 9 kts | 353° |
| 2026-05-06 14:16 | 40.06115 | 116.61107 | 123 ft | 12 kts | 356° |
| 2026-05-06 14:16 | 40.06207 | 116.61092 | 123 ft | 13 kts | 353° |
| 2026-05-06 14:17 | 40.06242 | 116.60992 | 123 ft | 16 kts | 263° |
| 2026-05-06 14:17 | 40.06225 | 116.60810 | 123 ft | 20 kts | 263° |
| 2026-05-06 14:17 | 40.06208 | 116.60620 | 123 ft | 21 kts | 264° |
| 2026-05-06 14:17 | 40.06190 | 116.60426 | 123 ft | 21 kts | 263° |
| 2026-05-06 14:18 | 40.06172 | 116.60236 | 123 ft | 17 kts | 263° |
| 2026-05-06 14:18 | 40.06110 | 116.60159 | 123 ft | 14 kts | 174° |
| 2026-05-06 14:18 | 40.06001 | 116.60175 | 123 ft | 16 kts | 173° |
| 2026-05-06 14:18 | 40.05910 | 116.60190 | 123 ft | 16 kts | 172° |
| 2026-05-06 14:19 | 40.05796 | 116.60207 | 123 ft | 16 kts | 173° |
| 2026-05-06 14:19 | 40.05682 | 116.60226 | 123 ft | 16 kts | 172° |
| 2026-05-06 14:19 | 40.05620 | 116.60162 | 123 ft | 14 kts | 271° |
| 2026-05-06 14:19 | 40.05624 | 116.60029 | 123 ft | 14 kts | 283° |
| 2026-05-06 14:20 | 40.05690 | 116.59991 | 123 ft | 10 kts | 353° |
| 2026-05-06 14:20 | 40.06024 | 116.59938 | 123 ft | 86 kts | 353° |
| 2026-05-06 14:20 | 40.06840 | 116.59811 | 127 ft | 146 kts | 353° |
| 2026-05-06 14:20 | 40.07910 | 116.59645 | 515 ft | 157 kts | 353° |
| 2026-05-06 14:21 | 40.08969 | 116.59496 | 1197 ft | 155 kts | 354° |
| 2026-05-06 14:21 | 40.09990 | 116.59373 | 2012 ft | 144 kts | 354° |
| 2026-05-06 14:21 | 40.10999 | 116.59224 | 2525 ft | 151 kts | 350° |
| 2026-05-06 14:21 | 40.12101 | 116.59034 | 2884 ft | 169 kts | 351° |
| 2026-05-06 14:22 | 40.13315 | 116.58824 | 3324 ft | 183 kts | 351° |
| 2026-05-06 14:22 | 40.14645 | 116.58606 | 3775 ft | 201 kts | 351° |
| 2026-05-06 14:22 | 40.16120 | 116.58368 | 4263 ft | 219 kts | 351° |
| 2026-05-06 14:22 | 40.17676 | 116.58122 | 4839 ft | 234 kts | 351° |
| 2026-05-06 14:23 | 40.19304 | 116.57861 | 5567 ft | 240 kts | 351° |
| 2026-05-06 14:23 | 40.20963 | 116.57604 | 6446 ft | 240 kts | 350° |
| 2026-05-06 14:23 | 40.22610 | 116.57352 | 7213 ft | 243 kts | 349° |
| 2026-05-06 14:23 | 40.24290 | 116.56959 | 7852 ft | 249 kts | 338° |
| 2026-05-06 14:24 | 40.25843 | 116.55962 | 8562 ft | 250 kts | 322° |
| 2026-05-06 14:24 | 40.27195 | 116.54514 | 9264 ft | 253 kts | 316° |
| 2026-05-06 14:24 | 40.28507 | 116.52992 | 9990 ft | 256 kts | 315° |
| 2026-05-06 14:24 | 40.29870 | 116.51394 | 10580 ft | 264 kts | 313° |
| 2026-05-06 14:25 | 40.31033 | 116.49461 | 10920 ft | 276 kts | 295° |
| 2026-05-06 14:25 | 40.31615 | 116.47031 | 11219 ft | 290 kts | 277° |
| 2026-05-06 14:25 | 40.31662 | 116.44316 | 11558 ft | 305 kts | 271° |
| 2026-05-06 14:25 | 40.31663 | 116.41533 | 12006 ft | 313 kts | 271° |
| 2026-05-06 14:26 | 40.31664 | 116.38635 | 12642 ft | 318 kts | 270° |
| 2026-05-06 14:26 | 40.31663 | 116.35736 | 13385 ft | 317 kts | 270° |
| 2026-05-06 14:26 | 40.31663 | 116.32798 | 14075 ft | 319 kts | 269° |
| 2026-05-06 14:26 | 40.31658 | 116.29907 | 14700 ft | 320 kts | 269° |
| 2026-05-06 14:27 | 40.31652 | 116.26962 | 15266 ft | 325 kts | 270° |
| 2026-05-06 14:27 | 40.31651 | 116.24017 | 15915 ft | 328 kts | 270° |
| 2026-05-06 14:27 | 40.31649 | 116.21015 | 16595 ft | 329 kts | 270° |
| 2026-05-06 14:27 | 40.31646 | 116.18009 | 17218 ft | 332 kts | 270° |
| 2026-05-06 14:28 | 40.31641 | 116.14971 | 17862 ft | 334 kts | 270° |
| 2026-05-06 14:28 | 40.31636 | 116.11917 | 18488 ft | 336 kts | 269° |
| 2026-05-06 14:28 | 40.31630 | 116.08851 | 19071 ft | 338 kts | 270° |
| 2026-05-06 14:28 | 40.31626 | 116.05727 | 19683 ft | 340 kts | 270° |
| 2026-05-06 14:29 | 40.31616 | 116.02657 | 20263 ft | 342 kts | 269° |
| 2026-05-06 14:29 | 40.31607 | 115.99504 | 20850 ft | 344 kts | 270° |
| 2026-05-06 14:29 | 40.31597 | 115.96378 | 21442 ft | 345 kts | 269° |
| 2026-05-06 14:29 | 40.31584 | 115.93249 | 22026 ft | 344 kts | 269° |
| 2026-05-06 14:30 | 40.31574 | 115.90077 | 22515 ft | 348 kts | 270° |
| 2026-05-06 14:30 | 40.31563 | 115.86942 | 23039 ft | 349 kts | 269° |
| 2026-05-06 14:30 | 40.31553 | 115.83755 | 23536 ft | 352 kts | 269° |
| 2026-05-06 14:30 | 40.31540 | 115.80533 | 23837 ft | 359 kts | 269° |
| 2026-05-06 14:31 | 40.31521 | 115.77239 | 24229 ft | 363 kts | 267° |
| 2026-05-06 14:31 | 40.31135 | 115.73978 | 24694 ft | 365 kts | 255° |
| 2026-05-06 14:31 | 40.30083 | 115.70953 | 25206 ft | 369 kts | 242° |
| 2026-05-06 14:31 | 40.28446 | 115.68340 | 25660 ft | 379 kts | 229° |
| 2026-05-06 14:32 | 40.26262 | 115.66297 | 26051 ft | 392 kts | 216° |
| 2026-05-06 14:32 | 40.23842 | 115.64632 | 26551 ft | 392 kts | 216° |
| 2026-05-06 14:32 | 40.21429 | 115.62959 | 26961 ft | 393 kts | 216° |
| 2026-05-06 14:32 | 40.19021 | 115.61300 | 27322 ft | 395 kts | 216° |
| 2026-05-06 14:33 | 40.16576 | 115.59638 | 27727 ft | 396 kts | 216° |
| 2026-05-06 14:33 | 40.14121 | 115.57970 | 28068 ft | 397 kts | 216° |
| 2026-05-06 14:33 | 40.11692 | 115.56331 | 28410 ft | 398 kts | 215° |
| 2026-05-06 14:33 | 40.09198 | 115.54657 | 28715 ft | 399 kts | 215° |
| 2026-05-06 14:34 | 40.06815 | 115.52937 | 29141 ft | 391 kts | 220° |
| 2026-05-06 14:34 | 40.04710 | 115.50786 | 29622 ft | 379 kts | 229° |
| 2026-05-06 14:34 | 40.02940 | 115.48274 | 30081 ft | 370 kts | 236° |
| 2026-05-06 14:34 | 40.01537 | 115.45537 | 30457 ft | 365 kts | 243° |
| 2026-05-06 14:35 | 40.00462 | 115.42573 | 30707 ft | 364 kts | 250° |
| 2026-05-06 14:35 | 39.99741 | 115.39410 | 30954 ft | 364 kts | 258° |
| 2026-05-06 14:35 | 39.99397 | 115.36121 | 31283 ft | 364 kts | 264° |
| 2026-05-06 14:35 | 39.99424 | 115.32819 | 31577 ft | 366 kts | 268° |
| 2026-05-06 14:36 | 39.99562 | 115.29527 | 31906 ft | 364 kts | 268° |
| 2026-05-06 14:36 | 39.99701 | 115.26247 | 32205 ft | 363 kts | 269° |
| 2026-05-06 14:36 | 39.99845 | 115.22977 | 32486 ft | 362 kts | 269° |
| 2026-05-06 14:36 | 39.99998 | 115.19707 | 32750 ft | 362 kts | 270° |
| 2026-05-06 14:37 | 40.00158 | 115.16459 | 32944 ft | 363 kts | 269° |
| 2026-05-06 14:37 | 40.00318 | 115.13169 | 33096 ft | 365 kts | 270° |
| 2026-05-06 14:37 | 40.00478 | 115.09846 | 33326 ft | 365 kts | 270° |
| 2026-05-06 14:37 | 40.00642 | 115.06545 | 33550 ft | 365 kts | 270° |
| 2026-05-06 14:38 | 40.00805 | 115.03243 | 33700 ft | 366 kts | 269° |
| 2026-05-06 14:38 | 40.00964 | 114.99949 | 33852 ft | 367 kts | 270° |
| 2026-05-06 14:38 | 40.01128 | 114.96609 | 34020 ft | 367 kts | 270° |
| 2026-05-06 14:38 | 40.01286 | 114.93312 | 34142 ft | 368 kts | 270° |
| 2026-05-06 14:39 | 40.01606 | 114.86651 | 34235 ft | 370 kts | 270° |
| 2026-05-06 14:39 | 40.01928 | 114.79950 | 34244 ft | 369 kts | 270° |
| 2026-05-06 14:40 | 40.02240 | 114.73279 | 34256 ft | 369 kts | 270° |
| 2026-05-06 14:40 | 40.02550 | 114.66592 | 34251 ft | 369 kts | 270° |
| 2026-05-06 14:41 | 40.02855 | 114.59918 | 34254 ft | 369 kts | 270° |
| 2026-05-06 14:41 | 40.03159 | 114.53288 | 34248 ft | 368 kts | 270° |
| 2026-05-06 14:42 | 40.03457 | 114.46627 | 34244 ft | 368 kts | 271° |
| 2026-05-06 14:42 | 40.03752 | 114.39932 | 34246 ft | 369 kts | 270° |
| 2026-05-06 14:43 | 40.04042 | 114.33257 | 34250 ft | 369 kts | 270° |
| 2026-05-06 14:43 | 40.04327 | 114.26569 | 34256 ft | 369 kts | 270° |
| 2026-05-06 14:44 | 40.04611 | 114.19887 | 34252 ft | 369 kts | 270° |
| 2026-05-06 14:45 | 40.05191 | 114.09861 | 34255 ft | 369 kts | 272° |
| 2026-05-06 14:45 | 40.05681 | 114.03198 | 34257 ft | 370 kts | 273° |
| 2026-05-06 14:46 | 40.06171 | 113.96543 | 34261 ft | 370 kts | 272° |
| 2026-05-06 14:46 | 40.06657 | 113.89831 | 34262 ft | 371 kts | 273° |
| 2026-05-06 14:47 | 40.07139 | 113.83154 | 34264 ft | 370 kts | 273° |
| 2026-05-06 14:47 | 40.07618 | 113.76455 | 34268 ft | 370 kts | 273° |
| 2026-05-06 14:48 | 40.08096 | 113.69768 | 34271 ft | 371 kts | 273° |
| 2026-05-06 14:48 | 40.08563 | 113.63135 | 34274 ft | 369 kts | 273° |
| 2026-05-06 14:49 | 40.09030 | 113.56409 | 34275 ft | 369 kts | 274° |
| 2026-05-06 14:49 | 40.09489 | 113.49779 | 34271 ft | 369 kts | 273° |
| 2026-05-06 14:50 | 40.09952 | 113.43076 | 34271 ft | 369 kts | 274° |
| 2026-05-06 14:50 | 40.10403 | 113.36425 | 34276 ft | 369 kts | 274° |
| 2026-05-06 14:51 | 40.10852 | 113.29757 | 34282 ft | 369 kts | 273° |
| 2026-05-06 14:51 | 40.11301 | 113.23091 | 34289 ft | 369 kts | 273° |
| 2026-05-06 14:52 | 40.11742 | 113.16411 | 34288 ft | 369 kts | 273° |
| 2026-05-06 14:52 | 40.12178 | 113.09755 | 34289 ft | 369 kts | 274° |
| 2026-05-06 14:53 | 40.12613 | 113.03108 | 34287 ft | 369 kts | 274° |
| 2026-05-06 14:53 | 40.13044 | 112.96436 | 34288 ft | 369 kts | 274° |
| 2026-05-06 14:54 | 40.13473 | 112.89771 | 34291 ft | 369 kts | 274° |
| 2026-05-06 14:54 | 40.13896 | 112.83089 | 34295 ft | 370 kts | 274° |
| 2026-05-06 14:55 | 40.14315 | 112.76402 | 34288 ft | 369 kts | 274° |
| 2026-05-06 14:55 | 40.14729 | 112.69740 | 34285 ft | 370 kts | 274° |
| 2026-05-06 14:56 | 40.15138 | 112.63044 | 34294 ft | 370 kts | 274° |
| 2026-05-06 14:56 | 40.15504 | 112.56366 | 34301 ft | 370 kts | 272° |
| 2026-05-06 14:57 | 40.15397 | 112.49606 | 34311 ft | 371 kts | 266° |
| 2026-05-06 14:57 | 40.14732 | 112.42952 | 34313 ft | 371 kts | 262° |
| 2026-05-06 14:58 | 40.13501 | 112.36369 | 34316 ft | 374 kts | 257° |
| 2026-05-06 14:58 | 40.11808 | 112.29953 | 34325 ft | 376 kts | 254° |
| 2026-05-06 14:59 | 40.10056 | 112.23511 | 34324 ft | 376 kts | 254° |
| 2026-05-06 14:59 | 40.08285 | 112.17100 | 34319 ft | 376 kts | 254° |
| 2026-05-06 15:00 | 40.06502 | 112.10715 | 34315 ft | 376 kts | 254° |
| 2026-05-06 15:00 | 40.04694 | 112.04292 | 34317 ft | 376 kts | 254° |
| 2026-05-06 15:01 | 40.02897 | 111.97925 | 34297 ft | 376 kts | 255° |
| 2026-05-06 15:01 | 40.00856 | 111.91570 | 34305 ft | 381 kts | 249° |
| 2026-05-06 15:02 | 39.98156 | 111.85603 | 34380 ft | 387 kts | 242° |
| 2026-05-06 15:02 | 39.94775 | 111.80069 | 34345 ft | 393 kts | 235° |
| 2026-05-06 15:03 | 39.90782 | 111.75136 | 34353 ft | 399 kts | 229° |
| 2026-05-06 15:03 | 39.86534 | 111.70488 | 34360 ft | 397 kts | 229° |
| 2026-05-06 15:04 | 39.82293 | 111.65879 | 34352 ft | 399 kts | 229° |
| 2026-05-06 15:04 | 39.78034 | 111.61266 | 34356 ft | 397 kts | 229° |
| 2026-05-06 15:05 | 39.73785 | 111.56683 | 34353 ft | 397 kts | 230° |
| 2026-05-06 15:05 | 39.69538 | 111.52106 | 34351 ft | 397 kts | 230° |
| 2026-05-06 15:06 | 39.65277 | 111.47525 | 34354 ft | 396 kts | 229° |
| 2026-05-06 15:06 | 39.61020 | 111.42958 | 34356 ft | 395 kts | 230° |
| 2026-05-06 15:07 | 39.56801 | 111.38440 | 34354 ft | 395 kts | 230° |
| 2026-05-06 15:07 | 39.52548 | 111.33894 | 34354 ft | 394 kts | 229° |
| 2026-05-06 15:08 | 39.48346 | 111.29405 | 34349 ft | 394 kts | 229° |
| 2026-05-06 15:08 | 39.44107 | 111.24885 | 34346 ft | 393 kts | 229° |
| 2026-05-06 15:09 | 39.39904 | 111.20411 | 34338 ft | 393 kts | 229° |
| 2026-05-06 15:09 | 39.35674 | 111.15913 | 34339 ft | 392 kts | 229° |
| 2026-05-06 15:10 | 39.31473 | 111.11459 | 34336 ft | 392 kts | 230° |
| 2026-05-06 15:10 | 39.27252 | 111.06986 | 34331 ft | 392 kts | 230° |
| 2026-05-06 15:11 | 39.23119 | 111.02435 | 34322 ft | 383 kts | 235° |
| 2026-05-06 15:11 | 39.19916 | 110.97165 | 34327 ft | 371 kts | 246° |
| 2026-05-06 15:12 | 39.17766 | 110.91258 | 34328 ft | 361 kts | 256° |
| 2026-05-06 15:12 | 39.16686 | 110.85006 | 34324 ft | 356 kts | 266° |
| 2026-05-06 15:13 | 39.16644 | 110.78636 | 34330 ft | 357 kts | 272° |
| 2026-05-06 15:13 | 39.16891 | 110.72295 | 34324 ft | 357 kts | 272° |
| 2026-05-06 15:14 | 39.17162 | 110.65894 | 34325 ft | 357 kts | 273° |
| 2026-05-06 15:14 | 39.17448 | 110.59542 | 34321 ft | 357 kts | 273° |
| 2026-05-06 15:15 | 39.17738 | 110.53172 | 34323 ft | 357 kts | 273° |
| 2026-05-06 15:15 | 39.18026 | 110.46812 | 34334 ft | 357 kts | 273° |
| 2026-05-06 15:16 | 39.18311 | 110.40447 | 34337 ft | 357 kts | 274° |
| 2026-05-06 15:16 | 39.18593 | 110.34072 | 34340 ft | 357 kts | 273° |
| 2026-05-06 15:17 | 39.18871 | 110.27698 | 34342 ft | 357 kts | 273° |
| 2026-05-06 15:17 | 39.19151 | 110.21326 | 34347 ft | 357 kts | 273° |
| 2026-05-06 15:18 | 39.19425 | 110.14948 | 34348 ft | 357 kts | 274° |
| 2026-05-06 15:18 | 39.19740 | 110.08569 | 34349 ft | 357 kts | 274° |
| 2026-05-06 15:19 | 39.20052 | 110.02185 | 34350 ft | 357 kts | 274° |
| 2026-05-06 15:19 | 39.20355 | 109.95840 | 34356 ft | 357 kts | 274° |
| 2026-05-06 15:20 | 39.20655 | 109.89469 | 34355 ft | 357 kts | 274° |
| 2026-05-06 15:20 | 39.20950 | 109.83086 | 34360 ft | 357 kts | 273° |
| 2026-05-06 15:21 | 39.21235 | 109.76736 | 34366 ft | 356 kts | 274° |
| 2026-05-06 15:21 | 39.21523 | 109.70381 | 34372 ft | 357 kts | 274° |
| 2026-05-06 15:22 | 39.21735 | 109.63998 | 34366 ft | 357 kts | 268° |
| 2026-05-06 15:22 | 39.20530 | 109.57767 | 34374 ft | 366 kts | 252° |
| 2026-05-06 15:23 | 39.17621 | 109.52269 | 34371 ft | 383 kts | 235° |
| 2026-05-06 15:23 | 39.15532 | 109.50018 | 34372 ft | 397 kts | 226° |
| 2026-05-06 15:23 | 39.13088 | 109.48277 | 34369 ft | 413 kts | 216° |
| 2026-05-06 15:24 | 39.07449 | 109.46362 | 34375 ft | 414 kts | 206° |
| 2026-05-06 15:24 | 39.01820 | 109.44898 | 34376 ft | 411 kts | 205° |
| 2026-05-06 15:25 | 38.96223 | 109.43503 | 34374 ft | 412 kts | 205° |
| 2026-05-06 15:25 | 38.90599 | 109.42116 | 34376 ft | 412 kts | 205° |
| 2026-05-06 15:26 | 38.84954 | 109.40716 | 34377 ft | 412 kts | 205° |
| 2026-05-06 15:26 | 38.79354 | 109.39321 | 34376 ft | 410 kts | 205° |
| 2026-05-06 15:27 | 38.73753 | 109.37933 | 34372 ft | 410 kts | 205° |
| 2026-05-06 15:27 | 38.68142 | 109.36544 | 34371 ft | 411 kts | 205° |
| 2026-05-06 15:28 | 38.62544 | 109.35170 | 34370 ft | 411 kts | 205° |
| 2026-05-06 15:28 | 38.56908 | 109.33787 | 34372 ft | 411 kts | 204° |
| 2026-05-06 15:29 | 38.51310 | 109.32418 | 34369 ft | 410 kts | 204° |
| 2026-05-06 15:29 | 38.45711 | 109.31051 | 34365 ft | 410 kts | 204° |
| 2026-05-06 15:30 | 38.40016 | 109.29726 | 34368 ft | 417 kts | 202° |
| 2026-05-06 15:30 | 38.34208 | 109.29039 | 34362 ft | 426 kts | 197° |
| 2026-05-06 15:31 | 38.28273 | 109.28673 | 34366 ft | 425 kts | 196° |
| 2026-05-06 15:31 | 38.22368 | 109.28309 | 34361 ft | 426 kts | 197° |
| 2026-05-06 15:32 | 38.13516 | 109.27766 | 34359 ft | 426 kts | 197° |
| 2026-05-06 15:32 | 38.07608 | 109.27400 | 34357 ft | 426 kts | 197° |
| 2026-05-06 15:33 | 38.01690 | 109.27036 | 34355 ft | 425 kts | 196° |
| 2026-05-06 15:33 | 37.95765 | 109.26675 | 34338 ft | 425 kts | 197° |
| 2026-05-06 15:34 | 37.89837 | 109.26311 | 34342 ft | 428 kts | 196° |
| 2026-05-06 15:34 | 37.83913 | 109.25953 | 34352 ft | 426 kts | 196° |
| 2026-05-06 15:35 | 37.77980 | 109.25600 | 34344 ft | 425 kts | 197° |
| 2026-05-06 15:35 | 37.72054 | 109.25244 | 34347 ft | 426 kts | 196° |
| 2026-05-06 15:36 | 37.66168 | 109.24892 | 34350 ft | 423 kts | 196° |
| 2026-05-06 15:36 | 37.60261 | 109.24535 | 34346 ft | 426 kts | 196° |
| 2026-05-06 15:37 | 37.54375 | 109.24181 | 34343 ft | 424 kts | 196° |
| 2026-05-06 15:37 | 37.48455 | 109.23829 | 34341 ft | 426 kts | 196° |
| 2026-05-06 15:38 | 37.42552 | 109.23480 | 34349 ft | 425 kts | 196° |
| 2026-05-06 15:38 | 37.36644 | 109.23126 | 34347 ft | 427 kts | 196° |
| 2026-05-06 15:39 | 37.30711 | 109.22774 | 34346 ft | 425 kts | 196° |
| 2026-05-06 15:39 | 37.24773 | 109.22424 | 34337 ft | 425 kts | 196° |
| 2026-05-06 15:40 | 37.18887 | 109.22074 | 34338 ft | 423 kts | 195° |
| 2026-05-06 15:40 | 37.13005 | 109.21727 | 34345 ft | 426 kts | 196° |
| 2026-05-06 15:41 | 37.07095 | 109.21376 | 34332 ft | 425 kts | 195° |
| 2026-05-06 15:41 | 37.01152 | 109.21028 | 34338 ft | 426 kts | 195° |
| 2026-05-06 15:42 | 36.95222 | 109.20683 | 34344 ft | 427 kts | 195° |
| 2026-05-06 15:42 | 36.89311 | 109.20341 | 34347 ft | 424 kts | 195° |
| 2026-05-06 15:43 | 36.83445 | 109.19999 | 34340 ft | 425 kts | 195° |
| 2026-05-06 15:43 | 36.77527 | 109.19675 | 34342 ft | 425 kts | 195° |
| 2026-05-06 15:44 | 36.71589 | 109.19348 | 34339 ft | 427 kts | 194° |
| 2026-05-06 15:44 | 36.65682 | 109.19026 | 34334 ft | 425 kts | 194° |
| 2026-05-06 15:45 | 36.59753 | 109.18707 | 34337 ft | 426 kts | 194° |
| 2026-05-06 15:45 | 36.53846 | 109.18392 | 34337 ft | 425 kts | 194° |
| 2026-05-06 15:46 | 36.47904 | 109.18071 | 34338 ft | 425 kts | 193° |
| 2026-05-06 15:46 | 36.42018 | 109.17757 | 34336 ft | 426 kts | 194° |
| 2026-05-06 15:47 | 36.36103 | 109.17400 | 34333 ft | 423 kts | 195° |
| 2026-05-06 15:47 | 36.30210 | 109.16919 | 34329 ft | 425 kts | 194° |
| 2026-05-06 15:48 | 36.24295 | 109.16525 | 34331 ft | 426 kts | 194° |
| 2026-05-06 15:48 | 36.18366 | 109.16140 | 34330 ft | 428 kts | 193° |
| 2026-05-06 15:49 | 36.12464 | 109.15758 | 34326 ft | 426 kts | 193° |
| 2026-05-06 15:49 | 36.06511 | 109.15373 | 34324 ft | 426 kts | 193° |
| 2026-05-06 15:50 | 36.00584 | 109.14991 | 34313 ft | 429 kts | 193° |
| 2026-05-06 15:50 | 35.94632 | 109.14606 | 34313 ft | 428 kts | 193° |
| 2026-05-06 15:51 | 35.88714 | 109.14056 | 34312 ft | 424 kts | 197° |
| 2026-05-06 15:51 | 35.82966 | 109.12781 | 34314 ft | 415 kts | 203° |
| 2026-05-06 15:52 | 35.77447 | 109.10772 | 34311 ft | 411 kts | 209° |
| 2026-05-06 15:52 | 35.72037 | 109.08359 | 34311 ft | 414 kts | 209° |
| 2026-05-06 15:53 | 35.66643 | 109.05966 | 34306 ft | 414 kts | 208° |
| 2026-05-06 15:53 | 35.61218 | 109.03561 | 34309 ft | 414 kts | 208° |
| 2026-05-06 15:54 | 35.55759 | 109.01145 | 34303 ft | 415 kts | 208° |
| 2026-05-06 15:54 | 35.50346 | 108.98747 | 34300 ft | 415 kts | 208° |
| 2026-05-06 15:55 | 35.44922 | 108.96354 | 34305 ft | 415 kts | 208° |
| 2026-05-06 15:55 | 35.39463 | 108.93946 | 34308 ft | 415 kts | 208° |
| 2026-05-06 15:56 | 35.34042 | 108.91558 | 34311 ft | 415 kts | 208° |
| 2026-05-06 15:56 | 35.28586 | 108.89156 | 34307 ft | 415 kts | 208° |
| 2026-05-06 15:57 | 35.23128 | 108.86757 | 34307 ft | 415 kts | 208° |
| 2026-05-06 15:57 | 35.17675 | 108.84363 | 34297 ft | 416 kts | 208° |
| 2026-05-06 15:58 | 35.12245 | 108.81984 | 34290 ft | 416 kts | 208° |
| 2026-05-06 15:58 | 35.06805 | 108.79606 | 34295 ft | 416 kts | 208° |
| 2026-05-06 15:59 | 35.01355 | 108.77222 | 34280 ft | 416 kts | 208° |
| 2026-05-06 15:59 | 34.95865 | 108.74827 | 34275 ft | 418 kts | 208° |
| 2026-05-06 16:00 | 34.90422 | 108.72457 | 34285 ft | 417 kts | 208° |
| 2026-05-06 16:00 | 34.84935 | 108.70071 | 34274 ft | 417 kts | 208° |
| 2026-05-06 16:01 | 34.79485 | 108.67700 | 34272 ft | 418 kts | 208° |
| 2026-05-06 16:01 | 34.74010 | 108.65327 | 34270 ft | 417 kts | 208° |
| 2026-05-06 16:02 | 34.68517 | 108.62950 | 34266 ft | 417 kts | 208° |
| 2026-05-06 16:02 | 34.63075 | 108.60596 | 34257 ft | 417 kts | 208° |
| 2026-05-06 16:03 | 34.57604 | 108.58232 | 34255 ft | 418 kts | 208° |
| 2026-05-06 16:03 | 34.52117 | 108.55866 | 34251 ft | 419 kts | 208° |
| 2026-05-06 16:04 | 34.46639 | 108.53503 | 34259 ft | 419 kts | 207° |
| 2026-05-06 16:04 | 34.41145 | 108.51138 | 34257 ft | 417 kts | 207° |
| 2026-05-06 16:05 | 34.35666 | 108.48784 | 34255 ft | 418 kts | 207° |
| 2026-05-06 16:05 | 34.30179 | 108.46429 | 34262 ft | 418 kts | 207° |
| 2026-05-06 16:06 | 34.24679 | 108.44074 | 34267 ft | 419 kts | 207° |
| 2026-05-06 16:06 | 34.19223 | 108.41740 | 34280 ft | 418 kts | 207° |
| 2026-05-06 16:07 | 34.13695 | 108.39378 | 34299 ft | 419 kts | 207° |
| 2026-05-06 16:07 | 34.08231 | 108.37053 | 34306 ft | 418 kts | 207° |
| 2026-05-06 16:08 | 34.02714 | 108.34698 | 34334 ft | 418 kts | 206° |
| 2026-05-06 16:08 | 33.97238 | 108.32367 | 34345 ft | 418 kts | 206° |
| 2026-05-06 16:09 | 33.91726 | 108.30026 | 34361 ft | 419 kts | 206° |
| 2026-05-06 16:09 | 33.86257 | 108.27708 | 34371 ft | 418 kts | 206° |
| 2026-05-06 16:10 | 33.80756 | 108.25378 | 34376 ft | 419 kts | 206° |
| 2026-05-06 16:10 | 33.75279 | 108.23063 | 34379 ft | 419 kts | 206° |
| 2026-05-06 16:11 | 33.69763 | 108.20734 | 34371 ft | 419 kts | 206° |
| 2026-05-06 16:11 | 33.64258 | 108.18408 | 34353 ft | 421 kts | 206° |
| 2026-05-06 16:12 | 33.58720 | 108.16074 | 34325 ft | 420 kts | 206° |
| 2026-05-06 16:12 | 33.53194 | 108.13747 | 34300 ft | 420 kts | 205° |
| 2026-05-06 16:13 | 33.47693 | 108.11439 | 34275 ft | 421 kts | 206° |
| 2026-05-06 16:13 | 33.42252 | 108.08843 | 34266 ft | 415 kts | 213° |
| 2026-05-06 16:14 | 33.37508 | 108.04986 | 34271 ft | 414 kts | 224° |
| 2026-05-06 16:14 | 33.33044 | 108.00590 | 34257 ft | 416 kts | 224° |
| 2026-05-06 16:15 | 33.28590 | 107.96192 | 34247 ft | 416 kts | 225° |
| 2026-05-06 16:15 | 33.26670 | 107.93685 | 34230 ft | 411 kts | 240° |
| 2026-05-06 16:15 | 33.25404 | 107.90614 | 34228 ft | 411 kts | 254° |
| 2026-05-06 16:16 | 33.24220 | 107.83925 | 34221 ft | 415 kts | 259° |
| 2026-05-06 16:16 | 33.23113 | 107.77171 | 34215 ft | 415 kts | 259° |
| 2026-05-06 16:17 | 33.21713 | 107.70512 | 34218 ft | 416 kts | 252° |
| 2026-05-06 16:17 | 33.19488 | 107.64152 | 34201 ft | 416 kts | 248° |
| 2026-05-06 16:18 | 33.17159 | 107.57886 | 34200 ft | 416 kts | 248° |
| 2026-05-06 16:18 | 33.14816 | 107.51585 | 34190 ft | 416 kts | 248° |
| 2026-05-06 16:19 | 33.12474 | 107.45297 | 34194 ft | 416 kts | 248° |
| 2026-05-06 16:19 | 33.10114 | 107.38963 | 34183 ft | 416 kts | 248° |
| 2026-05-06 16:20 | 33.07770 | 107.32694 | 34172 ft | 417 kts | 247° |
| 2026-05-06 16:20 | 33.05545 | 107.26317 | 34186 ft | 416 kts | 251° |
| 2026-05-06 16:21 | 33.03630 | 107.19820 | 34179 ft | 417 kts | 251° |
| 2026-05-06 16:21 | 33.01696 | 107.13308 | 34173 ft | 416 kts | 252° |
| 2026-05-06 16:22 | 32.99771 | 107.06866 | 34165 ft | 414 kts | 252° |
| 2026-05-06 16:22 | 32.99187 | 107.03599 | 34125 ft | 398 kts | 270° |
| 2026-05-06 16:22 | 32.99690 | 107.00454 | 34156 ft | 384 kts | 291° |
| 2026-05-06 16:23 | 33.01204 | 106.97906 | 34163 ft | 378 kts | 314° |
| 2026-05-06 16:23 | 33.03474 | 106.96360 | 34180 ft | 381 kts | 338° |
| 2026-05-06 16:23 | 33.06158 | 106.96066 | 34192 ft | 397 kts | 2° |
| 2026-05-06 16:23 | 33.08800 | 106.97096 | 34202 ft | 413 kts | 26° |
| 2026-05-06 16:24 | 33.11017 | 106.99367 | 34213 ft | 425 kts | 50° |
| 2026-05-06 16:24 | 33.12372 | 107.02499 | 34216 ft | 432 kts | 75° |
| 2026-05-06 16:24 | 33.12660 | 107.06051 | 34213 ft | 430 kts | 99° |
| 2026-05-06 16:24 | 33.11930 | 107.09435 | 34234 ft | 427 kts | 112° |
| 2026-05-06 16:25 | 33.11134 | 107.12877 | 34192 ft | 431 kts | 97° |
| 2026-05-06 16:25 | 33.11141 | 107.16428 | 34186 ft | 431 kts | 79° |
| 2026-05-06 16:25 | 33.11989 | 107.19821 | 34191 ft | 429 kts | 61° |
| 2026-05-06 16:25 | 33.13397 | 107.22921 | 34201 ft | 429 kts | 59° |
| 2026-05-06 16:26 | 33.16085 | 107.29287 | 34184 ft | 429 kts | 61° |
| 2026-05-06 16:26 | 33.18699 | 107.35683 | 34182 ft | 430 kts | 61° |
| 2026-05-06 16:27 | 33.21299 | 107.42084 | 34178 ft | 431 kts | 61° |
| 2026-05-06 16:27 | 33.23902 | 107.48515 | 34181 ft | 432 kts | 61° |
| 2026-05-06 16:28 | 33.26501 | 107.54945 | 34194 ft | 431 kts | 61° |
| 2026-05-06 16:28 | 33.29105 | 107.61379 | 34203 ft | 431 kts | 61° |
| 2026-05-06 16:29 | 33.31709 | 107.67844 | 34223 ft | 431 kts | 62° |
| 2026-05-06 16:29 | 33.34304 | 107.74280 | 34226 ft | 430 kts | 61° |
| 2026-05-06 16:30 | 33.36456 | 107.79663 | 34237 ft | 430 kts | 62° |
| 2026-05-06 16:30 | 33.39464 | 107.87182 | 34247 ft | 431 kts | 61° |
| 2026-05-06 16:31 | 33.42018 | 107.93620 | 34257 ft | 429 kts | 61° |
| 2026-05-06 16:31 | 33.44591 | 108.00088 | 34258 ft | 430 kts | 61° |
| 2026-05-06 16:32 | 33.47157 | 108.06531 | 34267 ft | 431 kts | 61° |
| 2026-05-06 16:32 | 33.49712 | 108.12974 | 34271 ft | 431 kts | 61° |
| 2026-05-06 16:33 | 33.52304 | 108.19485 | 34269 ft | 432 kts | 61° |
| 2026-05-06 16:34 | 33.56166 | 108.29185 | 34287 ft | 431 kts | 61° |
| 2026-05-06 16:34 | 33.58722 | 108.35636 | 34315 ft | 432 kts | 61° |
| 2026-05-06 16:35 | 33.61286 | 108.42145 | 34335 ft | 432 kts | 61° |
| 2026-05-06 16:35 | 33.63861 | 108.48671 | 34336 ft | 432 kts | 61° |
| 2026-05-06 16:36 | 33.66424 | 108.55143 | 34338 ft | 432 kts | 60° |
| 2026-05-06 16:36 | 33.69015 | 108.61684 | 34327 ft | 433 kts | 61° |
| 2026-05-06 16:37 | 33.71595 | 108.68171 | 34303 ft | 432 kts | 61° |
| 2026-05-06 16:37 | 33.74185 | 108.74671 | 34296 ft | 433 kts | 61° |
| 2026-05-06 16:38 | 33.76770 | 108.81171 | 34286 ft | 432 kts | 61° |
| 2026-05-06 16:38 | 33.79351 | 108.87678 | 34284 ft | 433 kts | 61° |
| 2026-05-06 16:39 | 33.81955 | 108.94209 | 34278 ft | 433 kts | 61° |
| 2026-05-06 16:39 | 33.84537 | 109.00710 | 34274 ft | 434 kts | 61° |
| 2026-05-06 16:40 | 33.87132 | 109.07244 | 34274 ft | 434 kts | 61° |
| 2026-05-06 16:40 | 33.89735 | 109.13805 | 34269 ft | 434 kts | 60° |
| 2026-05-06 16:41 | 33.92320 | 109.20315 | 34257 ft | 434 kts | 61° |
| 2026-05-06 16:41 | 33.94929 | 109.26879 | 34255 ft | 435 kts | 61° |
| 2026-05-06 16:42 | 33.97548 | 109.33436 | 34247 ft | 434 kts | 61° |
| 2026-05-06 16:42 | 34.00140 | 109.39972 | 34251 ft | 435 kts | 60° |
| 2026-05-06 16:43 | 34.02737 | 109.46549 | 34252 ft | 437 kts | 60° |
| 2026-05-06 16:43 | 34.05358 | 109.53172 | 34253 ft | 436 kts | 60° |
| 2026-05-06 16:44 | 34.07942 | 109.59753 | 34250 ft | 435 kts | 60° |
| 2026-05-06 16:44 | 34.10547 | 109.66356 | 34245 ft | 436 kts | 61° |
| 2026-05-06 16:45 | 34.13145 | 109.72953 | 34261 ft | 437 kts | 61° |
| 2026-05-06 16:45 | 34.15759 | 109.79568 | 34273 ft | 437 kts | 61° |
| 2026-05-06 16:46 | 34.18370 | 109.86165 | 34271 ft | 438 kts | 60° |
| 2026-05-06 16:46 | 34.20985 | 109.92776 | 34265 ft | 439 kts | 60° |
| 2026-05-06 16:47 | 34.23620 | 109.99431 | 34249 ft | 438 kts | 60° |
| 2026-05-06 16:47 | 34.26235 | 110.06034 | 34245 ft | 439 kts | 60° |
| 2026-05-06 16:48 | 34.28874 | 110.12682 | 34232 ft | 438 kts | 60° |
| 2026-05-06 16:48 | 34.31518 | 110.19324 | 34222 ft | 439 kts | 60° |
| 2026-05-06 16:49 | 34.34137 | 110.25942 | 34212 ft | 439 kts | 60° |
| 2026-05-06 16:49 | 34.36774 | 110.32592 | 34209 ft | 439 kts | 60° |
| 2026-05-06 16:50 | 34.39420 | 110.39239 | 34201 ft | 438 kts | 60° |
| 2026-05-06 16:50 | 34.42059 | 110.45849 | 34199 ft | 438 kts | 60° |
| 2026-05-06 16:51 | 34.44700 | 110.52472 | 34192 ft | 438 kts | 60° |
| 2026-05-06 16:51 | 34.47329 | 110.59087 | 34187 ft | 437 kts | 60° |
| 2026-05-06 16:52 | 34.49971 | 110.65694 | 34172 ft | 438 kts | 60° |
| 2026-05-06 16:52 | 34.52641 | 110.72361 | 34166 ft | 438 kts | 60° |
| 2026-05-06 16:53 | 34.55310 | 110.78999 | 34163 ft | 440 kts | 60° |
| 2026-05-06 16:53 | 34.57979 | 110.85632 | 34162 ft | 439 kts | 60° |
| 2026-05-06 16:54 | 34.60642 | 110.92267 | 34161 ft | 439 kts | 60° |
| 2026-05-06 16:54 | 34.63319 | 110.98942 | 34161 ft | 438 kts | 60° |
| 2026-05-06 16:55 | 34.65992 | 111.05576 | 34159 ft | 439 kts | 60° |
| 2026-05-06 16:55 | 34.68670 | 111.12241 | 34153 ft | 440 kts | 60° |
| 2026-05-06 16:56 | 34.71334 | 111.18885 | 34150 ft | 439 kts | 60° |
| 2026-05-06 16:56 | 34.74006 | 111.25520 | 34145 ft | 439 kts | 60° |
| 2026-05-06 16:57 | 34.76684 | 111.32181 | 34137 ft | 440 kts | 60° |
| 2026-05-06 16:57 | 34.79352 | 111.38835 | 34137 ft | 439 kts | 60° |
| 2026-05-06 16:58 | 34.82019 | 111.45519 | 34140 ft | 440 kts | 59° |
| 2026-05-06 16:58 | 34.84691 | 111.52222 | 34144 ft | 440 kts | 59° |
| 2026-05-06 16:59 | 34.87345 | 111.58892 | 34139 ft | 440 kts | 59° |
| 2026-05-06 16:59 | 34.90008 | 111.65593 | 34129 ft | 440 kts | 60° |
| 2026-05-06 17:00 | 34.92679 | 111.72298 | 34119 ft | 441 kts | 60° |
| 2026-05-06 17:00 | 34.95333 | 111.78978 | 34108 ft | 441 kts | 60° |
| 2026-05-06 17:01 | 34.97996 | 111.85709 | 34110 ft | 443 kts | 60° |
| 2026-05-06 17:01 | 35.00653 | 111.92470 | 34113 ft | 442 kts | 60° |
| 2026-05-06 17:02 | 35.03284 | 111.99204 | 34119 ft | 442 kts | 60° |
| 2026-05-06 17:02 | 35.05924 | 112.05992 | 34121 ft | 443 kts | 60° |
| 2026-05-06 17:03 | 35.08562 | 112.12737 | 34112 ft | 443 kts | 60° |
| 2026-05-06 17:03 | 35.11242 | 112.19514 | 34118 ft | 443 kts | 60° |
| 2026-05-06 17:04 | 35.13933 | 112.26318 | 34111 ft | 444 kts | 59° |
| 2026-05-06 17:04 | 35.16613 | 112.33061 | 34125 ft | 445 kts | 59° |
| 2026-05-06 17:05 | 35.19331 | 112.39841 | 34129 ft | 446 kts | 59° |
| 2026-05-06 17:05 | 35.22038 | 112.46612 | 34140 ft | 445 kts | 59° |
| 2026-05-06 17:06 | 35.24747 | 112.53398 | 34144 ft | 445 kts | 59° |
| 2026-05-06 17:06 | 35.27446 | 112.60181 | 34146 ft | 445 kts | 59° |
| 2026-05-06 17:07 | 35.30184 | 112.67024 | 34150 ft | 446 kts | 60° |
| 2026-05-06 17:07 | 35.32922 | 112.73829 | 34153 ft | 447 kts | 60° |
| 2026-05-06 17:08 | 35.35661 | 112.80615 | 34148 ft | 446 kts | 60° |
| 2026-05-06 17:08 | 35.38425 | 112.87427 | 34138 ft | 447 kts | 59° |
| 2026-05-06 17:09 | 35.41198 | 112.94247 | 34130 ft | 448 kts | 59° |
| 2026-05-06 17:09 | 35.43962 | 113.01028 | 34121 ft | 447 kts | 59° |
| 2026-05-06 17:10 | 35.46729 | 113.07855 | 34120 ft | 448 kts | 59° |
| 2026-05-06 17:10 | 35.49489 | 113.14665 | 34133 ft | 448 kts | 59° |
| 2026-05-06 17:11 | 35.52274 | 113.21534 | 34146 ft | 448 kts | 59° |
| 2026-05-06 17:11 | 35.55031 | 113.28323 | 34153 ft | 447 kts | 59° |
| 2026-05-06 17:12 | 35.57836 | 113.35168 | 34158 ft | 449 kts | 59° |
| 2026-05-06 17:12 | 35.60625 | 113.42019 | 34164 ft | 449 kts | 59° |
| 2026-05-06 17:13 | 35.63401 | 113.48862 | 34162 ft | 449 kts | 59° |
| 2026-05-06 17:13 | 35.66194 | 113.55720 | 34157 ft | 449 kts | 59° |
| 2026-05-06 17:14 | 35.68973 | 113.62557 | 34142 ft | 450 kts | 59° |
| 2026-05-06 17:14 | 35.71775 | 113.69458 | 34122 ft | 450 kts | 59° |
| 2026-05-06 17:15 | 35.74580 | 113.76351 | 34104 ft | 450 kts | 59° |
| 2026-05-06 17:15 | 35.77384 | 113.83221 | 34101 ft | 450 kts | 59° |
| 2026-05-06 17:16 | 35.80186 | 113.90102 | 34099 ft | 450 kts | 59° |
| 2026-05-06 17:16 | 35.82992 | 113.96962 | 34098 ft | 451 kts | 59° |
| 2026-05-06 17:17 | 35.85786 | 114.03854 | 34099 ft | 451 kts | 59° |
| 2026-05-06 17:17 | 35.88580 | 114.10744 | 34082 ft | 451 kts | 59° |
| 2026-05-06 17:18 | 35.91390 | 114.17673 | 34072 ft | 452 kts | 59° |
| 2026-05-06 17:18 | 35.94185 | 114.24601 | 34063 ft | 452 kts | 59° |
| 2026-05-06 17:19 | 35.96989 | 114.31518 | 34061 ft | 453 kts | 59° |
| 2026-05-06 17:19 | 35.99804 | 114.38463 | 34057 ft | 454 kts | 59° |
| 2026-05-06 17:20 | 36.02618 | 114.45411 | 34051 ft | 452 kts | 59° |
| 2026-05-06 17:20 | 36.05432 | 114.52350 | 34049 ft | 453 kts | 59° |
| 2026-05-06 17:21 | 36.08263 | 114.59351 | 34049 ft | 455 kts | 58° |
| 2026-05-06 17:21 | 36.11078 | 114.66321 | 34039 ft | 453 kts | 59° |
| 2026-05-06 17:22 | 36.13917 | 114.73370 | 34042 ft | 454 kts | 59° |
| 2026-05-06 17:22 | 36.16748 | 114.80366 | 34047 ft | 456 kts | 59° |
| 2026-05-06 17:23 | 36.19588 | 114.87363 | 34038 ft | 455 kts | 58° |
| 2026-05-06 17:23 | 36.22413 | 114.94374 | 34038 ft | 456 kts | 59° |
| 2026-05-06 17:24 | 36.25233 | 115.01389 | 34038 ft | 456 kts | 59° |
| 2026-05-06 17:24 | 36.28058 | 115.08379 | 34036 ft | 455 kts | 58° |
| 2026-05-06 17:25 | 36.30875 | 115.15400 | 34035 ft | 456 kts | 58° |
| 2026-05-06 17:25 | 36.33686 | 115.22450 | 34042 ft | 457 kts | 59° |
| 2026-05-06 17:26 | 36.36505 | 115.29536 | 34043 ft | 458 kts | 59° |
| 2026-05-06 17:26 | 36.39323 | 115.36573 | 34038 ft | 459 kts | 58° |
| 2026-05-06 17:27 | 36.42157 | 115.43684 | 34037 ft | 459 kts | 58° |
| 2026-05-06 17:27 | 36.44972 | 115.50774 | 34042 ft | 459 kts | 58° |
| 2026-05-06 17:28 | 36.47803 | 115.57867 | 34049 ft | 460 kts | 58° |
| 2026-05-06 17:28 | 36.50643 | 115.64986 | 34044 ft | 461 kts | 58° |
| 2026-05-06 17:29 | 36.53487 | 115.72146 | 34046 ft | 462 kts | 59° |
| 2026-05-06 17:29 | 36.56322 | 115.79286 | 34046 ft | 462 kts | 58° |
| 2026-05-06 17:30 | 36.59148 | 115.86436 | 34049 ft | 462 kts | 59° |
| 2026-05-06 17:30 | 36.61997 | 115.93596 | 34055 ft | 463 kts | 58° |
| 2026-05-06 17:31 | 36.64850 | 116.00761 | 34055 ft | 462 kts | 58° |
| 2026-05-06 17:31 | 36.67710 | 116.07957 | 34058 ft | 464 kts | 58° |
| 2026-05-06 17:32 | 36.70543 | 116.15108 | 34058 ft | 464 kts | 58° |
| 2026-05-06 17:32 | 36.73393 | 116.22291 | 34056 ft | 463 kts | 58° |
| 2026-05-06 17:33 | 36.76249 | 116.29523 | 34051 ft | 464 kts | 58° |
| 2026-05-06 17:33 | 36.79100 | 116.36687 | 34049 ft | 464 kts | 58° |
| 2026-05-06 17:34 | 36.81952 | 116.43879 | 34046 ft | 464 kts | 58° |
| 2026-05-06 17:34 | 36.84808 | 116.51080 | 34043 ft | 464 kts | 58° |
| 2026-05-06 17:35 | 36.87708 | 116.58313 | 34043 ft | 465 kts | 58° |
| 2026-05-06 17:35 | 36.90595 | 116.65531 | 34039 ft | 465 kts | 58° |
| 2026-05-06 17:36 | 36.94912 | 116.76402 | 34046 ft | 465 kts | 58° |
| 2026-05-06 17:36 | 36.97788 | 116.83619 | 34042 ft | 465 kts | 58° |
| 2026-05-06 17:37 | 37.00646 | 116.90812 | 34041 ft | 466 kts | 58° |
| 2026-05-06 17:37 | 37.03527 | 116.98070 | 34042 ft | 466 kts | 58° |
| 2026-05-06 17:38 | 37.06417 | 117.05328 | 34045 ft | 468 kts | 57° |
| 2026-05-06 17:38 | 37.09333 | 117.12608 | 34047 ft | 468 kts | 58° |
| 2026-05-06 17:39 | 37.12251 | 117.19918 | 34046 ft | 467 kts | 58° |
| 2026-05-06 17:39 | 37.15149 | 117.27172 | 34050 ft | 469 kts | 57° |
| 2026-05-06 17:40 | 37.18041 | 117.34447 | 34051 ft | 469 kts | 57° |
| 2026-05-06 17:40 | 37.20949 | 117.41746 | 34059 ft | 468 kts | 57° |
| 2026-05-06 17:41 | 37.23791 | 117.49042 | 34066 ft | 469 kts | 58° |
| 2026-05-06 17:41 | 37.26684 | 117.56398 | 34060 ft | 467 kts | 58° |
| 2026-05-06 17:42 | 37.29585 | 117.63693 | 34068 ft | 469 kts | 57° |
| 2026-05-06 17:42 | 37.32494 | 117.71020 | 34061 ft | 469 kts | 58° |
| 2026-05-06 17:43 | 37.35401 | 117.78348 | 34064 ft | 469 kts | 58° |
| 2026-05-06 17:43 | 37.38300 | 117.85698 | 34064 ft | 469 kts | 58° |
| 2026-05-06 17:44 | 37.41193 | 117.93012 | 34054 ft | 470 kts | 57° |
| 2026-05-06 17:44 | 37.44122 | 118.00382 | 34057 ft | 471 kts | 58° |
| 2026-05-06 17:45 | 37.47028 | 118.07746 | 34050 ft | 471 kts | 58° |
| 2026-05-06 17:45 | 37.49910 | 118.15117 | 34053 ft | 471 kts | 57° |
| 2026-05-06 17:46 | 37.52846 | 118.22485 | 34053 ft | 472 kts | 57° |
| 2026-05-06 17:46 | 37.55742 | 118.29826 | 34054 ft | 472 kts | 57° |
| 2026-05-06 17:47 | 37.58643 | 118.37237 | 34048 ft | 470 kts | 58° |
| 2026-05-06 17:47 | 37.61533 | 118.44606 | 34048 ft | 471 kts | 57° |
| 2026-05-06 17:48 | 37.64436 | 118.52010 | 34056 ft | 471 kts | 57° |
| 2026-05-06 17:48 | 37.67319 | 118.59409 | 34051 ft | 470 kts | 57° |
| 2026-05-06 17:49 | 37.70210 | 118.66817 | 34042 ft | 471 kts | 58° |
| 2026-05-06 17:49 | 37.73099 | 118.74215 | 34041 ft | 471 kts | 57° |
| 2026-05-06 17:50 | 37.75999 | 118.81669 | 34038 ft | 469 kts | 57° |
| 2026-05-06 17:50 | 37.78855 | 118.89064 | 34041 ft | 471 kts | 57° |
| 2026-05-06 17:51 | 37.81736 | 118.96465 | 34051 ft | 471 kts | 57° |
| 2026-05-06 17:51 | 37.84637 | 119.03851 | 34041 ft | 471 kts | 57° |
| 2026-05-06 17:52 | 37.87526 | 119.11295 | 34038 ft | 470 kts | 57° |
| 2026-05-06 17:52 | 37.90400 | 119.18683 | 34042 ft | 470 kts | 57° |
| 2026-05-06 17:53 | 37.93270 | 119.26072 | 34031 ft | 471 kts | 57° |
| 2026-05-06 17:53 | 37.96155 | 119.33528 | 34027 ft | 472 kts | 57° |
| 2026-05-06 17:54 | 37.99035 | 119.41013 | 34032 ft | 471 kts | 57° |
| 2026-05-06 17:54 | 38.01900 | 119.48423 | 34040 ft | 471 kts | 56° |
| 2026-05-06 17:55 | 38.04766 | 119.55871 | 34026 ft | 471 kts | 57° |
| 2026-05-06 17:55 | 38.07625 | 119.63330 | 34031 ft | 471 kts | 56° |
| 2026-05-06 17:56 | 38.10514 | 119.70782 | 34023 ft | 473 kts | 57° |
| 2026-05-06 17:56 | 38.13419 | 119.78239 | 34025 ft | 473 kts | 57° |
| 2026-05-06 17:57 | 38.16292 | 119.85752 | 34031 ft | 471 kts | 58° |
| 2026-05-06 17:57 | 38.19176 | 119.93186 | 34023 ft | 472 kts | 57° |
| 2026-05-06 17:58 | 38.22055 | 120.00648 | 34020 ft | 472 kts | 57° |
| 2026-05-06 17:58 | 38.24968 | 120.08131 | 34009 ft | 472 kts | 57° |
| 2026-05-06 17:59 | 38.27880 | 120.15578 | 33996 ft | 471 kts | 57° |
| 2026-05-06 17:59 | 38.30832 | 120.23000 | 34020 ft | 473 kts | 57° |
| 2026-05-06 18:00 | 38.33814 | 120.30424 | 34001 ft | 473 kts | 56° |
| 2026-05-06 18:00 | 38.36842 | 120.37890 | 34003 ft | 475 kts | 57° |
| 2026-05-06 18:01 | 38.39861 | 120.45314 | 33996 ft | 473 kts | 56° |
| 2026-05-06 18:01 | 38.42359 | 120.51514 | 34011 ft | 474 kts | 57° |
| 2026-05-06 18:02 | 38.45425 | 120.58918 | 33988 ft | 474 kts | 57° |
| 2026-05-06 18:02 | 38.49015 | 120.67622 | 33985 ft | 474 kts | 57° |
| 2026-05-06 18:03 | 38.52088 | 120.75028 | 33996 ft | 476 kts | 57° |
| 2026-05-06 18:03 | 38.55200 | 120.82513 | 33999 ft | 476 kts | 57° |
| 2026-05-06 18:04 | 38.58338 | 120.89921 | 34012 ft | 478 kts | 57° |
| 2026-05-06 18:04 | 38.61514 | 120.97361 | 33982 ft | 476 kts | 57° |
| 2026-05-06 18:05 | 38.64682 | 121.04787 | 33982 ft | 478 kts | 57° |
| 2026-05-06 18:05 | 38.67851 | 121.12209 | 34013 ft | 478 kts | 56° |
| 2026-05-06 18:06 | 38.71028 | 121.19663 | 33988 ft | 477 kts | 56° |
| 2026-05-06 18:06 | 38.74166 | 121.27111 | 33980 ft | 476 kts | 56° |
| 2026-05-06 18:07 | 38.77267 | 121.34566 | 33977 ft | 475 kts | 56° |
| 2026-05-06 18:07 | 38.80377 | 121.42044 | 33972 ft | 474 kts | 57° |
| 2026-05-06 18:08 | 38.83461 | 121.49474 | 33979 ft | 474 kts | 56° |
| 2026-05-06 18:08 | 38.86551 | 121.56928 | 34007 ft | 474 kts | 56° |
| 2026-05-06 18:09 | 38.89650 | 121.64373 | 34002 ft | 474 kts | 56° |
| 2026-05-06 18:09 | 38.92767 | 121.71814 | 33994 ft | 475 kts | 57° |
| 2026-05-06 18:10 | 38.95866 | 121.79231 | 33970 ft | 474 kts | 56° |
| 2026-05-06 18:10 | 38.98953 | 121.86705 | 33998 ft | 473 kts | 57° |
| 2026-05-06 18:11 | 39.02032 | 121.94166 | 33983 ft | 474 kts | 56° |
| 2026-05-06 18:11 | 39.05148 | 122.01666 | 33958 ft | 475 kts | 56° |
| 2026-05-06 18:12 | 39.08242 | 122.09119 | 33967 ft | 475 kts | 56° |
| 2026-05-06 18:12 | 39.11359 | 122.16599 | 33964 ft | 473 kts | 56° |
| 2026-05-06 18:13 | 39.14478 | 122.24039 | 33973 ft | 474 kts | 56° |
| 2026-05-06 18:13 | 39.17616 | 122.31490 | 33972 ft | 474 kts | 56° |
| 2026-05-06 18:14 | 39.20736 | 122.38919 | 33973 ft | 473 kts | 56° |
| 2026-05-06 18:14 | 39.23854 | 122.46336 | 33978 ft | 473 kts | 56° |
| 2026-05-06 18:15 | 39.27013 | 122.53767 | 33981 ft | 474 kts | 56° |
| 2026-05-06 18:15 | 39.30174 | 122.61224 | 33961 ft | 474 kts | 56° |
| 2026-05-06 18:16 | 39.33320 | 122.68614 | 33945 ft | 473 kts | 56° |
| 2026-05-06 18:16 | 39.36523 | 122.76070 | 33961 ft | 474 kts | 56° |
| 2026-05-06 18:17 | 39.39722 | 122.83478 | 33992 ft | 474 kts | 56° |
| 2026-05-06 18:17 | 39.42919 | 122.90871 | 33977 ft | 473 kts | 56° |
| 2026-05-06 18:18 | 39.46125 | 122.98306 | 33940 ft | 473 kts | 56° |
| 2026-05-06 18:18 | 39.49343 | 123.05692 | 33963 ft | 473 kts | 56° |
| 2026-05-06 18:19 | 39.52554 | 123.13081 | 33961 ft | 473 kts | 56° |
| 2026-05-06 18:19 | 39.55751 | 123.20486 | 33957 ft | 473 kts | 56° |
| 2026-05-06 18:20 | 39.58966 | 123.27921 | 33954 ft | 473 kts | 56° |
| 2026-05-06 18:20 | 39.62186 | 123.35344 | 33945 ft | 475 kts | 56° |
| 2026-05-06 18:21 | 39.65424 | 123.42781 | 33959 ft | 475 kts | 56° |
| 2026-05-06 18:21 | 39.68666 | 123.50231 | 33947 ft | 474 kts | 56° |
| 2026-05-06 18:22 | 39.71890 | 123.57684 | 33962 ft | 474 kts | 55° |
| 2026-05-06 18:22 | 39.75110 | 123.65142 | 33937 ft | 473 kts | 56° |
| 2026-05-06 18:23 | 39.78332 | 123.72536 | 33960 ft | 473 kts | 56° |
| 2026-05-06 18:23 | 39.81551 | 123.79937 | 33949 ft | 472 kts | 56° |
| 2026-05-06 18:24 | 39.84801 | 123.87395 | 33970 ft | 473 kts | 56° |
| 2026-05-06 18:24 | 39.88033 | 123.94817 | 33959 ft | 472 kts | 56° |
| 2026-05-06 18:25 | 39.91205 | 124.02215 | 33948 ft | 469 kts | 56° |
| 2026-05-06 18:25 | 39.94403 | 124.09657 | 33962 ft | 470 kts | 55° |
| 2026-05-06 18:26 | 39.97604 | 124.17047 | 33957 ft | 471 kts | 56° |
| 2026-05-06 18:26 | 40.00792 | 124.24416 | 33956 ft | 469 kts | 55° |
| 2026-05-06 18:27 | 40.03999 | 124.31840 | 33965 ft | 469 kts | 55° |
| 2026-05-06 18:27 | 40.07207 | 124.39233 | 33960 ft | 470 kts | 56° |
| 2026-05-06 18:28 | 40.10434 | 124.46644 | 33954 ft | 470 kts | 56° |
| 2026-05-06 18:28 | 40.13674 | 124.54031 | 33985 ft | 471 kts | 55° |
| 2026-05-06 18:29 | 40.16928 | 124.61464 | 33978 ft | 471 kts | 56° |
| 2026-05-06 18:29 | 40.19643 | 124.67614 | 33966 ft | 471 kts | 56° |
| 2026-05-06 18:30 | 40.23489 | 124.76251 | 33969 ft | 472 kts | 56° |
| 2026-05-06 18:30 | 40.26779 | 124.83633 | 33987 ft | 466 kts | 56° |
| 2026-05-06 18:31 | 40.30034 | 124.90876 | 33992 ft | 458 kts | 55° |
| 2026-05-06 18:31 | 40.32996 | 124.98011 | 33867 ft | 442 kts | 76° |
| 2026-05-06 18:32 | 40.32935 | 125.01885 | 32660 ft | 427 kts | 134° |
| 2026-05-06 18:32 | 40.30930 | 125.03323 | 28735 ft | 379 kts | 224° |
| 2026-05-06 18:32 | 40.31223 | 125.01269 | 20123 ft | 556 kts | 328° |
| 2026-05-06 18:32 | 40.33780 | 125.01821 | 8781 ft | 620 kts | 37° |
| 2026-05-06 18:33 | 40.34967 | 125.05996 | 988 ft | 589 kts | 96° |
| 2026-05-06 18:33 | 40.34903 | 125.06533 | 828 ft | 0 kts | 113° |
| 2026-05-06 18:33 | 40.34903 | 125.06532 | 827 ft | 0 kts | 113° |
| 2026-05-06 18:33 | 40.34902 | 125.06531 | 826 ft | 0 kts | 113° |
| 2026-05-06 18:34 | 40.34901 | 125.06531 | 825 ft | 0 kts | 113° |
| 2026-05-06 18:34 | 40.34901 | 125.06530 | 825 ft | 0 kts | 113° |
| 2026-05-06 18:35 | 40.34901 | 125.06529 | 823 ft | 0 kts | 113° |
| 2026-05-06 18:35 | 40.34900 | 125.06529 | 823 ft | 0 kts | 113° |
| 2026-05-06 18:35 | 40.34900 | 125.06528 | 821 ft | 0 kts | 113° |
| 2026-05-06 18:36 | 40.34900 | 125.06527 | 821 ft | 0 kts | 113° |
| 2026-05-06 18:36 | 40.34899 | 125.06527 | 820 ft | 0 kts | 113° |
| 2026-05-06 18:36 | 40.34899 | 125.06526 | 820 ft | 0 kts | 113° |
| 2026-05-06 18:36 | 40.34899 | 125.06525 | 819 ft | 0 kts | 113° |
| 2026-05-06 18:37 | 40.34898 | 125.06525 | 818 ft | 0 kts | 113° |
| 2026-05-06 18:37 | 40.34898 | 125.06524 | 817 ft | 0 kts | 113° |
| 2026-05-06 18:38 | 40.34897 | 125.06523 | 816 ft | 0 kts | 113° |
| 2026-05-06 18:38 | 40.34897 | 125.06522 | 816 ft | 0 kts | 113° |
| 2026-05-06 18:38 | 40.34896 | 125.06522 | 815 ft | 0 kts | 113° |
| 2026-05-06 18:39 | 40.34896 | 125.06521 | 814 ft | 0 kts | 113° |
| 2026-05-06 18:39 | 40.34896 | 125.06520 | 813 ft | 0 kts | 113° |
| 2026-05-06 18:40 | 40.34895 | 125.06519 | 812 ft | 0 kts | 113° |
| 2026-05-06 18:40 | 40.34895 | 125.06518 | 811 ft | 0 kts | 113° |
| 2026-05-06 18:40 | 40.34894 | 125.06518 | 810 ft | 0 kts | 113° |
| 2026-05-06 18:41 | 40.34894 | 125.06517 | 809 ft | 0 kts | 113° |
| 2026-05-06 18:41 | 40.34893 | 125.06516 | 809 ft | 0 kts | 113° |
| 2026-05-06 18:42 | 40.34893 | 125.06515 | 807 ft | 0 kts | 113° |
| 2026-05-06 18:42 | 40.34892 | 125.06514 | 806 ft | 0 kts | 113° |
| 2026-05-06 18:42 | 40.34892 | 125.06513 | 805 ft | 0 kts | 113° |
| 2026-05-06 18:43 | 40.34891 | 125.06512 | 804 ft | 0 kts | 113° |
| 2026-05-06 18:43 | 40.34891 | 125.06511 | 802 ft | 0 kts | 114° |
| 2026-05-06 18:44 | 40.34890 | 125.06511 | 802 ft | 0 kts | 114° |
| 2026-05-06 18:44 | 40.34890 | 125.06510 | 801 ft | 0 kts | 114° |
| 2026-05-06 18:44 | 40.34890 | 125.06509 | 801 ft | 0 kts | 114° |
| 2026-05-06 18:45 | 40.34889 | 125.06509 | 800 ft | 0 kts | 115° |
| 2026-05-06 18:45 | 40.34889 | 125.06508 | 799 ft | 0 kts | 115° |
| 2026-05-06 18:45 | 40.34889 | 125.06507 | 799 ft | 0 kts | 115° |
| 2026-05-06 18:46 | 40.34888 | 125.06507 | 798 ft | 0 kts | 115° |
| 2026-05-06 18:46 | 40.34888 | 125.06506 | 798 ft | 0 kts | 115° |
| 2026-05-06 18:46 | 40.34887 | 125.06506 | 797 ft | 0 kts | 115° |
| 2026-05-06 18:47 | 40.34887 | 125.06505 | 796 ft | 0 kts | 114° |
| 2026-05-06 18:47 | 40.34886 | 125.06504 | 795 ft | 0 kts | 114° |
| 2026-05-06 18:48 | 40.34886 | 125.06503 | 795 ft | 0 kts | 114° |
| 2026-05-06 18:48 | 40.34885 | 125.06503 | 794 ft | 0 kts | 114° |
| 2026-05-06 18:48 | 40.34885 | 125.06502 | 793 ft | 0 kts | 113° |
| 2026-05-06 18:49 | 40.34885 | 125.06501 | 792 ft | 0 kts | 113° |
| 2026-05-06 18:49 | 40.34884 | 125.06501 | 792 ft | 0 kts | 113° |
| 2026-05-06 18:49 | 40.34884 | 125.06500 | 791 ft | 0 kts | 113° |
| 2026-05-06 18:50 | 40.34884 | 125.06499 | 790 ft | 0 kts | 113° |
| 2026-05-06 18:50 | 40.34883 | 125.06499 | 790 ft | 0 kts | 112° |
| 2026-05-06 18:51 | 40.34883 | 125.06498 | 789 ft | 0 kts | 112° |
| 2026-05-06 18:51 | 40.34882 | 125.06497 | 789 ft | 0 kts | 112° |
| 2026-05-06 18:52 | 40.34882 | 125.06496 | 788 ft | 0 kts | 112° |
| 2026-05-06 18:52 | 40.34881 | 125.06496 | 788 ft | 0 kts | 112° |
| 2026-05-06 18:53 | 40.34881 | 125.06495 | 787 ft | 0 kts | 112° |
| 2026-05-06 18:53 | 40.34880 | 125.06495 | 787 ft | 0 kts | 113° |
| 2026-05-06 18:53 | 40.34880 | 125.06494 | 786 ft | 0 kts | 112° |
| 2026-05-06 18:54 | 40.34880 | 125.06493 | 786 ft | 0 kts | 113° |
| 2026-05-06 18:54 | 40.34879 | 125.06493 | 785 ft | 0 kts | 113° |